sensor_id;sensor_type;location;lat;lon;timestamp;P1;durP1;ratioP1;P2;durP2;ratioP2
23236;SDS011;11787;52.018;8.570;2023-03-01T00:01:10;11.55;;;7.15;;
23236;SDS011;11787;52.018;8.570;2023-03-01T00:03:40;11.88;;;6.97;;
23236;SDS011;11787;52.018;8.570;2023-03-01T00:06:06;11.43;;;6.72;;
23236;SDS011;11787;52.018;8.570;2023-03-01T00:08:32;12.18;;;7.70;;
23236;SDS011;11787;52.018;8.570;2023-03-01T00:11:06;11.68;;;6.55;;
23236;SDS011;11787;52.018;8.570;2023-03-01T00:13:37;9.10;;;6.35;;
23236;SDS011;11787;52.018;8.570;2023-03-01T00:16:03;10.82;;;6.53;;
23236;SDS011;11787;52.018;8.570;2023-03-01T00:18:31;10.25;;;7.07;;
23236;SDS011;11787;52.018;8.570;2023-03-01T00:20:56;9.32;;;6.88;;
23236;SDS011;11787;52.018;8.570;2023-03-01T00:23:23;9.48;;;6.72;;
23236;SDS011;11787;52.018;8.570;2023-03-01T00:25:49;10.68;;;6.75;;
23236;SDS011;11787;52.018;8.570;2023-03-01T00:28:15;10.05;;;6.63;;
23236;SDS011;11787;52.018;8.570;2023-03-01T00:30:41;8.15;;;5.63;;
23236;SDS011;11787;52.018;8.570;2023-03-01T00:33:07;8.77;;;5.60;;
23236;SDS011;11787;52.018;8.570;2023-03-01T00:35:33;10.98;;;5.93;;
23236;SDS011;11787;52.018;8.570;2023-03-01T00:37:58;9.20;;;6.35;;
23236;SDS011;11787;52.018;8.570;2023-03-01T00:40:25;9.75;;;6.70;;
23236;SDS011;11787;52.018;8.570;2023-03-01T00:42:51;8.77;;;6.28;;
23236;SDS011;11787;52.018;8.570;2023-03-01T00:45:17;12.43;;;6.78;;
23236;SDS011;11787;52.018;8.570;2023-03-01T00:47:42;12.20;;;7.15;;
23236;SDS011;11787;52.018;8.570;2023-03-01T00:50:08;11.30;;;7.18;;
23236;SDS011;11787;52.018;8.570;2023-03-01T00:52:35;10.55;;;6.70;;
23236;SDS011;11787;52.018;8.570;2023-03-01T00:55:01;13.38;;;7.45;;
23236;SDS011;11787;52.018;8.570;2023-03-01T00:57:27;10.13;;;7.13;;
23236;SDS011;11787;52.018;8.570;2023-03-01T00:59:53;10.75;;;7.03;;
23236;SDS011;11787;52.018;8.570;2023-03-01T01:02:19;12.27;;;7.40;;
23236;SDS011;11787;52.018;8.570;2023-03-01T01:04:45;13.10;;;7.50;;
23236;SDS011;11787;52.018;8.570;2023-03-01T01:07:11;11.07;;;7.15;;
23236;SDS011;11787;52.018;8.570;2023-03-01T01:09:37;11.18;;;7.60;;
23236;SDS011;11787;52.018;8.570;2023-03-01T01:12:03;11.02;;;7.00;;
23236;SDS011;11787;52.018;8.570;2023-03-01T01:14:29;12.05;;;7.60;;
23236;SDS011;11787;52.018;8.570;2023-03-01T01:16:55;11.23;;;7.43;;
23236;SDS011;11787;52.018;8.570;2023-03-01T01:19:20;11.75;;;7.50;;
23236;SDS011;11787;52.018;8.570;2023-03-01T01:21:46;12.02;;;7.45;;
23236;SDS011;11787;52.018;8.570;2023-03-01T01:24:13;9.55;;;6.95;;
23236;SDS011;11787;52.018;8.570;2023-03-01T01:26:40;8.98;;;6.90;;
23236;SDS011;11787;52.018;8.570;2023-03-01T01:29:06;12.73;;;6.93;;
23236;SDS011;11787;52.018;8.570;2023-03-01T01:31:33;10.05;;;6.97;;
23236;SDS011;11787;52.018;8.570;2023-03-01T01:34:00;10.27;;;6.80;;
23236;SDS011;11787;52.018;8.570;2023-03-01T01:36:27;9.00;;;6.45;;
23236;SDS011;11787;52.018;8.570;2023-03-01T01:38:54;10.07;;;6.85;;
23236;SDS011;11787;52.018;8.570;2023-03-01T01:41:20;10.40;;;7.68;;
23236;SDS011;11787;52.018;8.570;2023-03-01T01:43:47;11.80;;;6.90;;
23236;SDS011;11787;52.018;8.570;2023-03-01T01:46:28;9.25;;;6.88;;
23236;SDS011;11787;52.018;8.570;2023-03-01T01:49:00;10.00;;;6.68;;
23236;SDS011;11787;52.018;8.570;2023-03-01T01:51:33;9.90;;;7.07;;
23236;SDS011;11787;52.018;8.570;2023-03-01T01:54:11;11.65;;;7.22;;
23236;SDS011;11787;52.018;8.570;2023-03-01T01:56:40;9.60;;;6.68;;
23236;SDS011;11787;52.018;8.570;2023-03-01T01:59:09;10.68;;;6.43;;
23236;SDS011;11787;52.018;8.570;2023-03-01T02:01:36;9.93;;;6.93;;
23236;SDS011;11787;52.018;8.570;2023-03-01T02:04:02;9.38;;;6.43;;
23236;SDS011;11787;52.018;8.570;2023-03-01T02:06:33;10.45;;;6.65;;
23236;SDS011;11787;52.018;8.570;2023-03-01T02:09:06;12.57;;;6.97;;
23236;SDS011;11787;52.018;8.570;2023-03-01T02:11:36;10.90;;;6.40;;
23236;SDS011;11787;52.018;8.570;2023-03-01T02:14:02;13.63;;;7.10;;
23236;SDS011;11787;52.018;8.570;2023-03-01T02:16:28;9.35;;;6.32;;
23236;SDS011;11787;52.018;8.570;2023-03-01T02:18:55;8.93;;;6.60;;
23236;SDS011;11787;52.018;8.570;2023-03-01T02:23:51;11.07;;;6.78;;
23236;SDS011;11787;52.018;8.570;2023-03-01T02:26:19;10.50;;;7.20;;
23236;SDS011;11787;52.018;8.570;2023-03-01T02:29:06;10.80;;;6.13;;
23236;SDS011;11787;52.018;8.570;2023-03-01T02:31:32;8.75;;;6.63;;
23236;SDS011;11787;52.018;8.570;2023-03-01T02:34:06;9.00;;;5.82;;
23236;SDS011;11787;52.018;8.570;2023-03-01T02:39:10;10.80;;;6.32;;
23236;SDS011;11787;52.018;8.570;2023-03-01T02:44:14;9.20;;;6.00;;
23236;SDS011;11787;52.018;8.570;2023-03-01T02:46:44;10.23;;;6.57;;
23236;SDS011;11787;52.018;8.570;2023-03-01T02:49:28;10.00;;;6.93;;
23236;SDS011;11787;52.018;8.570;2023-03-01T02:54:41;11.43;;;7.47;;
23236;SDS011;11787;52.018;8.570;2023-03-01T02:57:08;13.07;;;7.85;;
23236;SDS011;11787;52.018;8.570;2023-03-01T02:59:35;10.30;;;7.22;;
23236;SDS011;11787;52.018;8.570;2023-03-01T03:02:21;11.30;;;7.72;;
23236;SDS011;11787;52.018;8.570;2023-03-01T03:07:31;11.63;;;7.28;;
23236;SDS011;11787;52.018;8.570;2023-03-01T03:09:59;10.05;;;6.63;;
23236;SDS011;11787;52.018;8.570;2023-03-01T03:12:24;11.15;;;7.47;;
23236;SDS011;11787;52.018;8.570;2023-03-01T03:14:50;10.98;;;7.50;;
23236;SDS011;11787;52.018;8.570;2023-03-01T03:17:15;9.35;;;6.72;;
23236;SDS011;11787;52.018;8.570;2023-03-01T03:19:41;11.25;;;7.10;;
23236;SDS011;11787;52.018;8.570;2023-03-01T03:22:10;9.23;;;6.90;;
23236;SDS011;11787;52.018;8.570;2023-03-01T03:24:37;8.52;;;6.38;;
23236;SDS011;11787;52.018;8.570;2023-03-01T03:27:03;11.35;;;6.57;;
23236;SDS011;11787;52.018;8.570;2023-03-01T03:29:30;8.63;;;6.15;;
23236;SDS011;11787;52.018;8.570;2023-03-01T03:31:55;10.68;;;6.45;;
23236;SDS011;11787;52.018;8.570;2023-03-01T03:34:21;9.25;;;6.70;;
23236;SDS011;11787;52.018;8.570;2023-03-01T03:36:47;9.38;;;6.00;;
23236;SDS011;11787;52.018;8.570;2023-03-01T03:39:12;9.00;;;6.45;;
23236;SDS011;11787;52.018;8.570;2023-03-01T03:41:38;8.65;;;6.65;;
23236;SDS011;11787;52.018;8.570;2023-03-01T03:44:03;8.40;;;6.13;;
23236;SDS011;11787;52.018;8.570;2023-03-01T03:46:29;9.95;;;6.85;;
23236;SDS011;11787;52.018;8.570;2023-03-01T03:48:55;8.77;;;6.35;;
23236;SDS011;11787;52.018;8.570;2023-03-01T03:51:20;8.23;;;6.03;;
23236;SDS011;11787;52.018;8.570;2023-03-01T03:53:47;7.50;;;5.90;;
23236;SDS011;11787;52.018;8.570;2023-03-01T03:56:13;8.82;;;5.97;;
23236;SDS011;11787;52.018;8.570;2023-03-01T03:58:39;9.55;;;6.78;;
23236;SDS011;11787;52.018;8.570;2023-03-01T04:01:05;8.65;;;6.00;;
23236;SDS011;11787;52.018;8.570;2023-03-01T04:03:31;8.27;;;5.93;;
23236;SDS011;11787;52.018;8.570;2023-03-01T04:05:57;8.93;;;6.03;;
23236;SDS011;11787;52.018;8.570;2023-03-01T04:08:23;9.07;;;6.00;;
23236;SDS011;11787;52.018;8.570;2023-03-01T04:10:50;9.68;;;6.45;;
23236;SDS011;11787;52.018;8.570;2023-03-01T04:13:19;9.68;;;6.47;;
23236;SDS011;11787;52.018;8.570;2023-03-01T04:15:49;11.02;;;6.60;;
23236;SDS011;11787;52.018;8.570;2023-03-01T04:18:17;11.80;;;6.93;;
23236;SDS011;11787;52.018;8.570;2023-03-01T04:20:44;10.27;;;7.05;;
23236;SDS011;11787;52.018;8.570;2023-03-01T04:23:11;8.07;;;6.38;;
23236;SDS011;11787;52.018;8.570;2023-03-01T04:28:18;11.60;;;7.18;;
23236;SDS011;11787;52.018;8.570;2023-03-01T04:30:49;10.45;;;7.55;;
23236;SDS011;11787;52.018;8.570;2023-03-01T04:33:16;11.13;;;7.18;;
23236;SDS011;11787;52.018;8.570;2023-03-01T04:35:42;11.32;;;7.22;;
23236;SDS011;11787;52.018;8.570;2023-03-01T04:38:08;10.93;;;7.07;;
23236;SDS011;11787;52.018;8.570;2023-03-01T04:40:34;11.85;;;7.55;;
23236;SDS011;11787;52.018;8.570;2023-03-01T04:42:59;14.18;;;7.72;;
23236;SDS011;11787;52.018;8.570;2023-03-01T04:45:25;12.23;;;8.32;;
23236;SDS011;11787;52.018;8.570;2023-03-01T04:47:51;10.48;;;6.88;;
23236;SDS011;11787;52.018;8.570;2023-03-01T04:50:19;11.27;;;7.25;;
23236;SDS011;11787;52.018;8.570;2023-03-01T04:52:46;11.00;;;7.22;;
23236;SDS011;11787;52.018;8.570;2023-03-01T04:55:12;12.70;;;8.20;;
23236;SDS011;11787;52.018;8.570;2023-03-01T04:57:38;10.98;;;7.18;;
23236;SDS011;11787;52.018;8.570;2023-03-01T05:00:05;13.55;;;7.40;;
23236;SDS011;11787;52.018;8.570;2023-03-01T05:02:54;8.75;;;6.45;;
23236;SDS011;11787;52.018;8.570;2023-03-01T05:08:09;12.50;;;6.80;;
23236;SDS011;11787;52.018;8.570;2023-03-01T05:10:42;10.70;;;7.75;;
23236;SDS011;11787;52.018;8.570;2023-03-01T05:13:11;10.63;;;6.88;;
23236;SDS011;11787;52.018;8.570;2023-03-01T05:15:38;14.65;;;7.35;;
23236;SDS011;11787;52.018;8.570;2023-03-01T05:18:04;10.25;;;7.22;;
23236;SDS011;11787;52.018;8.570;2023-03-01T05:20:36;11.60;;;7.90;;
23236;SDS011;11787;52.018;8.570;2023-03-01T05:23:02;10.82;;;7.60;;
23236;SDS011;11787;52.018;8.570;2023-03-01T05:25:30;12.93;;;8.68;;
23236;SDS011;11787;52.018;8.570;2023-03-01T05:27:58;12.15;;;7.80;;
23236;SDS011;11787;52.018;8.570;2023-03-01T05:30:24;13.63;;;8.40;;
23236;SDS011;11787;52.018;8.570;2023-03-01T05:32:50;14.00;;;8.13;;
23236;SDS011;11787;52.018;8.570;2023-03-01T05:35:20;13.95;;;8.45;;
23236;SDS011;11787;52.018;8.570;2023-03-01T05:37:47;11.55;;;8.27;;
23236;SDS011;11787;52.018;8.570;2023-03-01T05:40:18;16.10;;;9.05;;
23236;SDS011;11787;52.018;8.570;2023-03-01T05:42:47;12.50;;;8.38;;
23236;SDS011;11787;52.018;8.570;2023-03-01T05:45:15;11.93;;;8.10;;
23236;SDS011;11787;52.018;8.570;2023-03-01T05:47:42;15.85;;;8.48;;
23236;SDS011;11787;52.018;8.570;2023-03-01T05:50:17;13.35;;;8.02;;
23236;SDS011;11787;52.018;8.570;2023-03-01T05:52:49;11.25;;;7.95;;
23236;SDS011;11787;52.018;8.570;2023-03-01T05:55:16;12.68;;;8.52;;
23236;SDS011;11787;52.018;8.570;2023-03-01T05:57:44;12.55;;;8.88;;
23236;SDS011;11787;52.018;8.570;2023-03-01T06:00:10;11.23;;;7.88;;
23236;SDS011;11787;52.018;8.570;2023-03-01T06:02:37;13.00;;;8.15;;
23236;SDS011;11787;52.018;8.570;2023-03-01T06:05:03;16.83;;;9.18;;
23236;SDS011;11787;52.018;8.570;2023-03-01T06:07:30;12.13;;;8.30;;
23236;SDS011;11787;52.018;8.570;2023-03-01T06:09:56;17.15;;;8.55;;
23236;SDS011;11787;52.018;8.570;2023-03-01T06:12:22;14.75;;;9.10;;
23236;SDS011;11787;52.018;8.570;2023-03-01T06:14:47;15.32;;;8.68;;
23236;SDS011;11787;52.018;8.570;2023-03-01T06:17:13;18.02;;;10.88;;
23236;SDS011;11787;52.018;8.570;2023-03-01T06:19:39;14.50;;;9.43;;
23236;SDS011;11787;52.018;8.570;2023-03-01T06:22:05;19.98;;;10.32;;
23236;SDS011;11787;52.018;8.570;2023-03-01T06:24:30;22.23;;;11.38;;
23236;SDS011;11787;52.018;8.570;2023-03-01T06:26:56;17.27;;;10.35;;
23236;SDS011;11787;52.018;8.570;2023-03-01T06:29:21;18.73;;;9.80;;
23236;SDS011;11787;52.018;8.570;2023-03-01T06:31:47;17.08;;;9.57;;
23236;SDS011;11787;52.018;8.570;2023-03-01T06:34:14;19.77;;;10.70;;
23236;SDS011;11787;52.018;8.570;2023-03-01T06:36:40;21.05;;;11.18;;
23236;SDS011;11787;52.018;8.570;2023-03-01T06:39:05;18.50;;;11.20;;
23236;SDS011;11787;52.018;8.570;2023-03-01T06:41:32;22.58;;;11.32;;
23236;SDS011;11787;52.018;8.570;2023-03-01T06:43:58;21.65;;;11.70;;
23236;SDS011;11787;52.018;8.570;2023-03-01T06:46:24;27.58;;;12.20;;
23236;SDS011;11787;52.018;8.570;2023-03-01T06:48:49;18.95;;;10.68;;
23236;SDS011;11787;52.018;8.570;2023-03-01T06:51:15;21.88;;;10.65;;
23236;SDS011;11787;52.018;8.570;2023-03-01T06:53:40;22.77;;;11.45;;
23236;SDS011;11787;52.018;8.570;2023-03-01T06:56:06;20.23;;;11.15;;
23236;SDS011;11787;52.018;8.570;2023-03-01T06:58:32;17.85;;;10.80;;
23236;SDS011;11787;52.018;8.570;2023-03-01T07:00:57;18.75;;;10.82;;
23236;SDS011;11787;52.018;8.570;2023-03-01T07:03:23;17.60;;;10.77;;
23236;SDS011;11787;52.018;8.570;2023-03-01T07:05:49;18.35;;;10.93;;
23236;SDS011;11787;52.018;8.570;2023-03-01T07:08:17;18.80;;;10.70;;
23236;SDS011;11787;52.018;8.570;2023-03-01T07:10:43;17.60;;;11.45;;
23236;SDS011;11787;52.018;8.570;2023-03-01T07:13:08;18.83;;;10.68;;
23236;SDS011;11787;52.018;8.570;2023-03-01T07:15:34;19.52;;;11.05;;
23236;SDS011;11787;52.018;8.570;2023-03-01T07:18:00;15.55;;;10.65;;
23236;SDS011;11787;52.018;8.570;2023-03-01T07:20:25;19.48;;;10.27;;
23236;SDS011;11787;52.018;8.570;2023-03-01T07:22:51;16.75;;;11.00;;
23236;SDS011;11787;52.018;8.570;2023-03-01T07:25:18;17.90;;;10.93;;
23236;SDS011;11787;52.018;8.570;2023-03-01T07:27:43;18.02;;;10.60;;
23236;SDS011;11787;52.018;8.570;2023-03-01T07:30:13;16.63;;;11.05;;
23236;SDS011;11787;52.018;8.570;2023-03-01T07:32:39;15.50;;;10.18;;
23236;SDS011;11787;52.018;8.570;2023-03-01T07:35:04;21.42;;;13.23;;
23236;SDS011;11787;52.018;8.570;2023-03-01T07:37:30;18.73;;;11.70;;
23236;SDS011;11787;52.018;8.570;2023-03-01T07:39:56;20.48;;;14.30;;
23236;SDS011;11787;52.018;8.570;2023-03-01T07:42:22;20.65;;;11.38;;
23236;SDS011;11787;52.018;8.570;2023-03-01T07:44:48;19.92;;;13.55;;
23236;SDS011;11787;52.018;8.570;2023-03-01T07:47:13;21.33;;;12.57;;
23236;SDS011;11787;52.018;8.570;2023-03-01T07:49:39;22.27;;;12.82;;
23236;SDS011;11787;52.018;8.570;2023-03-01T07:52:05;20.85;;;12.48;;
23236;SDS011;11787;52.018;8.570;2023-03-01T07:54:30;18.45;;;12.15;;
23236;SDS011;11787;52.018;8.570;2023-03-01T07:56:56;19.95;;;12.25;;
23236;SDS011;11787;52.018;8.570;2023-03-01T07:59:22;18.00;;;12.68;;
23236;SDS011;11787;52.018;8.570;2023-03-01T08:01:53;18.38;;;12.38;;
23236;SDS011;11787;52.018;8.570;2023-03-01T08:04:20;21.25;;;13.40;;
23236;SDS011;11787;52.018;8.570;2023-03-01T08:06:45;17.25;;;12.30;;
23236;SDS011;11787;52.018;8.570;2023-03-01T08:09:11;16.15;;;12.20;;
23236;SDS011;11787;52.018;8.570;2023-03-01T08:11:36;22.85;;;12.75;;
23236;SDS011;11787;52.018;8.570;2023-03-01T08:14:02;16.40;;;12.48;;
23236;SDS011;11787;52.018;8.570;2023-03-01T08:16:28;16.52;;;11.90;;
23236;SDS011;11787;52.018;8.570;2023-03-01T08:18:54;19.45;;;12.35;;
23236;SDS011;11787;52.018;8.570;2023-03-01T08:21:21;17.60;;;12.60;;
23236;SDS011;11787;52.018;8.570;2023-03-01T08:23:47;16.42;;;12.05;;
23236;SDS011;11787;52.018;8.570;2023-03-01T08:26:17;16.70;;;11.95;;
23236;SDS011;11787;52.018;8.570;2023-03-01T08:28:44;17.00;;;11.35;;
23236;SDS011;11787;52.018;8.570;2023-03-01T08:31:21;17.35;;;11.27;;
23236;SDS011;11787;52.018;8.570;2023-03-01T08:33:47;15.18;;;10.65;;
23236;SDS011;11787;52.018;8.570;2023-03-01T08:36:16;15.38;;;10.10;;
23236;SDS011;11787;52.018;8.570;2023-03-01T08:38:42;15.82;;;11.55;;
23236;SDS011;11787;52.018;8.570;2023-03-01T08:41:07;16.10;;;10.60;;
23236;SDS011;11787;52.018;8.570;2023-03-01T08:43:33;16.08;;;10.45;;
23236;SDS011;11787;52.018;8.570;2023-03-01T08:45:59;13.77;;;9.90;;
23236;SDS011;11787;52.018;8.570;2023-03-01T08:48:24;14.10;;;10.10;;
23236;SDS011;11787;52.018;8.570;2023-03-01T08:50:52;14.98;;;10.43;;
23236;SDS011;11787;52.018;8.570;2023-03-01T08:53:17;15.73;;;10.20;;
23236;SDS011;11787;52.018;8.570;2023-03-01T08:55:43;14.05;;;9.98;;
23236;SDS011;11787;52.018;8.570;2023-03-01T08:58:08;16.27;;;10.48;;
23236;SDS011;11787;52.018;8.570;2023-03-01T09:00:34;16.20;;;10.75;;
23236;SDS011;11787;52.018;8.570;2023-03-01T09:03:00;16.73;;;10.73;;
23236;SDS011;11787;52.018;8.570;2023-03-01T09:05:25;18.25;;;11.27;;
23236;SDS011;11787;52.018;8.570;2023-03-01T09:07:51;14.68;;;10.27;;
23236;SDS011;11787;52.018;8.570;2023-03-01T09:10:17;17.30;;;11.45;;
23236;SDS011;11787;52.018;8.570;2023-03-01T09:12:43;15.65;;;10.02;;
23236;SDS011;11787;52.018;8.570;2023-03-01T09:15:08;16.40;;;11.18;;
23236;SDS011;11787;52.018;8.570;2023-03-01T09:17:34;15.05;;;10.77;;
23236;SDS011;11787;52.018;8.570;2023-03-01T09:20:00;16.33;;;11.07;;
23236;SDS011;11787;52.018;8.570;2023-03-01T09:22:26;17.95;;;11.82;;
23236;SDS011;11787;52.018;8.570;2023-03-01T09:24:51;14.63;;;10.63;;
23236;SDS011;11787;52.018;8.570;2023-03-01T09:27:17;17.08;;;10.45;;
23236;SDS011;11787;52.018;8.570;2023-03-01T09:29:44;14.75;;;9.80;;
23236;SDS011;11787;52.018;8.570;2023-03-01T09:32:09;16.65;;;9.95;;
23236;SDS011;11787;52.018;8.570;2023-03-01T09:34:36;18.15;;;10.23;;
23236;SDS011;11787;52.018;8.570;2023-03-01T09:39:45;17.52;;;11.73;;
23236;SDS011;11787;52.018;8.570;2023-03-01T09:42:11;15.88;;;10.38;;
23236;SDS011;11787;52.018;8.570;2023-03-01T09:47:03;13.40;;;10.02;;
23236;SDS011;11787;52.018;8.570;2023-03-01T09:49:33;14.82;;;9.98;;
23236;SDS011;11787;52.018;8.570;2023-03-01T09:54:49;13.63;;;9.27;;
23236;SDS011;11787;52.018;8.570;2023-03-01T09:57:40;13.75;;;9.40;;
23236;SDS011;11787;52.018;8.570;2023-03-01T10:00:47;14.98;;;9.88;;
23236;SDS011;11787;52.018;8.570;2023-03-01T10:03:26;15.25;;;10.02;;
23236;SDS011;11787;52.018;8.570;2023-03-01T10:06:01;16.88;;;10.85;;
23236;SDS011;11787;52.018;8.570;2023-03-01T10:08:45;14.77;;;9.50;;
23236;SDS011;11787;52.018;8.570;2023-03-01T10:11:17;15.90;;;9.75;;
23236;SDS011;11787;52.018;8.570;2023-03-01T10:13:46;18.17;;;10.25;;
23236;SDS011;11787;52.018;8.570;2023-03-01T10:16:26;14.77;;;8.93;;
23236;SDS011;11787;52.018;8.570;2023-03-01T10:19:14;14.98;;;9.93;;
23236;SDS011;11787;52.018;8.570;2023-03-01T10:21:47;15.63;;;9.90;;
23236;SDS011;11787;52.018;8.570;2023-03-01T10:24:16;13.85;;;9.18;;
23236;SDS011;11787;52.018;8.570;2023-03-01T10:29:12;12.15;;;8.48;;
23236;SDS011;11787;52.018;8.570;2023-03-01T10:36:41;13.75;;;8.02;;
23236;SDS011;11787;52.018;8.570;2023-03-01T10:39:12;13.00;;;8.88;;
23236;SDS011;11787;52.018;8.570;2023-03-01T10:41:53;14.68;;;8.68;;
23236;SDS011;11787;52.018;8.570;2023-03-01T10:44:58;11.82;;;8.43;;
23236;SDS011;11787;52.018;8.570;2023-03-01T10:47:26;11.18;;;7.40;;
23236;SDS011;11787;52.018;8.570;2023-03-01T10:49:57;12.63;;;7.85;;
23236;SDS011;11787;52.018;8.570;2023-03-01T10:52:34;11.18;;;7.97;;
23236;SDS011;11787;52.018;8.570;2023-03-01T10:55:02;12.32;;;7.95;;
23236;SDS011;11787;52.018;8.570;2023-03-01T10:57:37;14.38;;;7.35;;
23236;SDS011;11787;52.018;8.570;2023-03-01T11:00:22;10.23;;;6.65;;
23236;SDS011;11787;52.018;8.570;2023-03-01T11:03:02;13.45;;;6.82;;
23236;SDS011;11787;52.018;8.570;2023-03-01T11:05:36;11.68;;;6.65;;
23236;SDS011;11787;52.018;8.570;2023-03-01T11:08:02;12.50;;;7.35;;
23236;SDS011;11787;52.018;8.570;2023-03-01T11:10:32;11.88;;;7.30;;
23236;SDS011;11787;52.018;8.570;2023-03-01T11:15:38;13.95;;;6.40;;
23236;SDS011;11787;52.018;8.570;2023-03-01T11:18:03;10.10;;;6.50;;
23236;SDS011;11787;52.018;8.570;2023-03-01T11:20:30;9.60;;;5.68;;
23236;SDS011;11787;52.018;8.570;2023-03-01T11:22:59;9.45;;;5.78;;
23236;SDS011;11787;52.018;8.570;2023-03-01T11:25:31;11.57;;;6.22;;
23236;SDS011;11787;52.018;8.570;2023-03-01T11:28:01;8.95;;;5.68;;
23236;SDS011;11787;52.018;8.570;2023-03-01T11:35:34;8.65;;;5.88;;
23236;SDS011;11787;52.018;8.570;2023-03-01T11:38:14;8.93;;;4.93;;
23236;SDS011;11787;52.018;8.570;2023-03-01T11:40:43;7.80;;;4.45;;
23236;SDS011;11787;52.018;8.570;2023-03-01T11:43:37;6.68;;;4.47;;
23236;SDS011;11787;52.018;8.570;2023-03-01T11:54:24;6.75;;;4.95;;
23236;SDS011;11787;52.018;8.570;2023-03-01T11:59:41;8.07;;;4.28;;
23236;SDS011;11787;52.018;8.570;2023-03-01T12:10:28;7.13;;;4.18;;
23236;SDS011;11787;52.018;8.570;2023-03-01T12:13:25;5.72;;;4.10;;
23236;SDS011;11787;52.018;8.570;2023-03-01T12:16:11;7.95;;;4.82;;
23236;SDS011;11787;52.018;8.570;2023-03-01T12:18:51;7.30;;;4.37;;
23236;SDS011;11787;52.018;8.570;2023-03-01T12:43:47;10.00;;;5.68;;
23236;SDS011;11787;52.018;8.570;2023-03-01T12:46:21;8.52;;;5.22;;
23236;SDS011;11787;52.018;8.570;2023-03-01T12:49:09;7.57;;;4.93;;
23236;SDS011;11787;52.018;8.570;2023-03-01T12:51:53;7.07;;;5.13;;
23236;SDS011;11787;52.018;8.570;2023-03-01T12:54:30;8.48;;;4.68;;
23236;SDS011;11787;52.018;8.570;2023-03-01T12:56:59;8.20;;;5.03;;
23236;SDS011;11787;52.018;8.570;2023-03-01T12:59:36;8.13;;;5.15;;
23236;SDS011;11787;52.018;8.570;2023-03-01T13:08:05;6.53;;;4.75;;
23236;SDS011;11787;52.018;8.570;2023-03-01T13:10:41;8.25;;;5.03;;
23236;SDS011;11787;52.018;8.570;2023-03-01T13:13:22;9.43;;;4.70;;
23236;SDS011;11787;52.018;8.570;2023-03-01T13:15:49;6.63;;;4.40;;
23236;SDS011;11787;52.018;8.570;2023-03-01T13:20:47;7.93;;;4.18;;
23236;SDS011;11787;52.018;8.570;2023-03-01T13:28:40;8.15;;;4.30;;
23236;SDS011;11787;52.018;8.570;2023-03-01T13:31:07;6.78;;;4.40;;
23236;SDS011;11787;52.018;8.570;2023-03-01T13:33:48;6.35;;;4.32;;
23236;SDS011;11787;52.018;8.570;2023-03-01T13:46:50;5.50;;;4.00;;
23236;SDS011;11787;52.018;8.570;2023-03-01T13:49:18;6.63;;;4.13;;
23236;SDS011;11787;52.018;8.570;2023-03-01T13:51:49;7.35;;;4.20;;
23236;SDS011;11787;52.018;8.570;2023-03-01T13:54:19;6.13;;;4.18;;
23236;SDS011;11787;52.018;8.570;2023-03-01T13:56:51;4.95;;;3.63;;
23236;SDS011;11787;52.018;8.570;2023-03-01T13:59:19;6.30;;;4.15;;
23236;SDS011;11787;52.018;8.570;2023-03-01T14:01:52;7.15;;;4.50;;
23236;SDS011;11787;52.018;8.570;2023-03-01T14:09:47;7.13;;;4.05;;
23236;SDS011;11787;52.018;8.570;2023-03-01T14:15:15;6.47;;;4.32;;
23236;SDS011;11787;52.018;8.570;2023-03-01T14:17:49;7.47;;;4.10;;
23236;SDS011;11787;52.018;8.570;2023-03-01T14:20:23;6.50;;;3.92;;
23236;SDS011;11787;52.018;8.570;2023-03-01T14:22:54;6.10;;;3.95;;
23236;SDS011;11787;52.018;8.570;2023-03-01T14:27:54;6.05;;;4.07;;
23236;SDS011;11787;52.018;8.570;2023-03-01T14:30:23;6.97;;;4.10;;
23236;SDS011;11787;52.018;8.570;2023-03-01T14:32:52;5.10;;;3.92;;
23236;SDS011;11787;52.018;8.570;2023-03-01T14:35:20;5.95;;;4.15;;
23236;SDS011;11787;52.018;8.570;2023-03-01T14:37:47;6.25;;;4.30;;
23236;SDS011;11787;52.018;8.570;2023-03-01T14:40:48;6.60;;;3.70;;
23236;SDS011;11787;52.018;8.570;2023-03-01T14:43:11;5.72;;;3.67;;
23236;SDS011;11787;52.018;8.570;2023-03-01T14:48:11;5.97;;;4.00;;
23236;SDS011;11787;52.018;8.570;2023-03-01T14:50:40;7.32;;;4.05;;
23236;SDS011;11787;52.018;8.570;2023-03-01T14:53:07;6.43;;;3.78;;
23236;SDS011;11787;52.018;8.570;2023-03-01T14:55:42;5.32;;;3.40;;
23236;SDS011;11787;52.018;8.570;2023-03-01T14:58:13;6.55;;;3.83;;
23236;SDS011;11787;52.018;8.570;2023-03-01T15:01:15;5.10;;;3.15;;
23236;SDS011;11787;52.018;8.570;2023-03-01T15:03:45;6.57;;;3.90;;
23236;SDS011;11787;52.018;8.570;2023-03-01T15:06:17;5.53;;;3.70;;
23236;SDS011;11787;52.018;8.570;2023-03-01T15:08:49;5.85;;;3.47;;
23236;SDS011;11787;52.018;8.570;2023-03-01T15:13:49;6.78;;;3.67;;
23236;SDS011;11787;52.018;8.570;2023-03-01T15:16:19;5.28;;;3.53;;
23236;SDS011;11787;52.018;8.570;2023-03-01T15:18:46;4.78;;;3.33;;
23236;SDS011;11787;52.018;8.570;2023-03-01T15:21:20;4.90;;;3.30;;
23236;SDS011;11787;52.018;8.570;2023-03-01T15:23:54;6.70;;;3.90;;
23236;SDS011;11787;52.018;8.570;2023-03-01T15:26:31;6.03;;;3.25;;
23236;SDS011;11787;52.018;8.570;2023-03-01T15:29:02;4.15;;;3.22;;
23236;SDS011;11787;52.018;8.570;2023-03-01T15:31:29;7.68;;;3.50;;
23236;SDS011;11787;52.018;8.570;2023-03-01T15:36:38;5.88;;;3.25;;
23236;SDS011;11787;52.018;8.570;2023-03-01T15:47:54;9.30;;;3.72;;
23236;SDS011;11787;52.018;8.570;2023-03-01T15:50:33;5.22;;;3.50;;
23236;SDS011;11787;52.018;8.570;2023-03-01T15:53:03;8.35;;;5.38;;
23236;SDS011;11787;52.018;8.570;2023-03-01T15:55:35;8.75;;;5.25;;
23236;SDS011;11787;52.018;8.570;2023-03-01T15:58:05;11.68;;;6.68;;
23236;SDS011;11787;52.018;8.570;2023-03-01T16:00:37;8.23;;;5.53;;
23236;SDS011;11787;52.018;8.570;2023-03-01T16:03:04;6.80;;;4.30;;
23236;SDS011;11787;52.018;8.570;2023-03-01T16:05:31;4.90;;;3.65;;
23236;SDS011;11787;52.018;8.570;2023-03-01T16:07:59;3.95;;;3.17;;
23236;SDS011;11787;52.018;8.570;2023-03-01T16:10:26;6.05;;;3.28;;
23236;SDS011;11787;52.018;8.570;2023-03-01T16:12:52;7.18;;;3.83;;
23236;SDS011;11787;52.018;8.570;2023-03-01T16:15:25;7.88;;;3.70;;
23236;SDS011;11787;52.018;8.570;2023-03-01T16:17:55;5.97;;;3.83;;
23236;SDS011;11787;52.018;8.570;2023-03-01T16:20:22;5.50;;;3.63;;
23236;SDS011;11787;52.018;8.570;2023-03-01T16:22:49;6.22;;;3.63;;
23236;SDS011;11787;52.018;8.570;2023-03-01T16:25:16;4.72;;;3.45;;
23236;SDS011;11787;52.018;8.570;2023-03-01T16:27:43;5.38;;;3.88;;
23236;SDS011;11787;52.018;8.570;2023-03-01T16:30:10;6.95;;;4.30;;
23236;SDS011;11787;52.018;8.570;2023-03-01T16:32:40;5.07;;;3.35;;
23236;SDS011;11787;52.018;8.570;2023-03-01T16:35:08;7.05;;;3.30;;
23236;SDS011;11787;52.018;8.570;2023-03-01T16:37:36;5.97;;;3.45;;
23236;SDS011;11787;52.018;8.570;2023-03-01T16:40:07;5.72;;;3.97;;
23236;SDS011;11787;52.018;8.570;2023-03-01T16:42:51;5.40;;;3.67;;
23236;SDS011;11787;52.018;8.570;2023-03-01T16:45:18;5.40;;;3.35;;
23236;SDS011;11787;52.018;8.570;2023-03-01T16:47:44;6.60;;;3.80;;
23236;SDS011;11787;52.018;8.570;2023-03-01T16:50:10;5.38;;;3.53;;
23236;SDS011;11787;52.018;8.570;2023-03-01T16:52:35;5.85;;;3.63;;
23236;SDS011;11787;52.018;8.570;2023-03-01T16:55:02;4.90;;;3.70;;
23236;SDS011;11787;52.018;8.570;2023-03-01T16:57:29;5.97;;;3.60;;
23236;SDS011;11787;52.018;8.570;2023-03-01T16:59:55;5.43;;;3.38;;
23236;SDS011;11787;52.018;8.570;2023-03-01T17:02:21;6.05;;;3.58;;